Time;durP1;ratioP1;P1;durP2;ratioP2;P2;SDS_P1;SDS_P2;PMS_P1;PMS_P2;Temp;Humidity;BMP_temperature;BMP_pressure;BME280_temperature;BME280_humidity;BME280_pressure;Samples;Min_cycle;Max_cycle;Signal;HPM_P1;HPM_P2
2021/07/26 00:01:28;;;;;;;;;10.75;9.00;;;;;20.66;67.55;100850.13;4980145;28;45449;-79
2021/07/26 00:03:54;;;;;;;;;10.75;9.50;;;;;20.74;67.82;100854.84;4980304;28;45250;-78
2021/07/26 00:06:19;;;;;;;;;10.25;8.00;;;;;20.75;67.29;100853.91;4980107;28;45310;-77
2021/07/26 00:08:45;;;;;;;;;8.00;8.00;;;;;20.78;67.76;100844.81;4966755;28;47170;-78
2021/07/26 00:11:11;;;;;;;;;8.50;8.50;;;;;20.83;67.88;100861.34;4984729;28;45339;-77
2021/07/26 00:13:38;;;;;;;;;9.75;7.75;;;;;20.90;67.94;100849.22;4981597;28;45269;-78
2021/07/26 00:16:04;;;;;;;;;8.50;7.00;;;;;20.94;67.59;100855.16;4979690;28;45454;-78
2021/07/26 00:18:30;;;;;;;;;7.00;7.00;;;;;20.95;67.00;100858.72;4981821;28;46580;-78
2021/07/26 00:20:56;;;;;;;;;8.25;8.25;;;;;20.94;67.20;100846.34;4983368;28;45330;-78
2021/07/26 00:23:23;;;;;;;;;7.75;7.75;;;;;20.94;67.26;100844.50;4983613;28;45516;-78
2021/07/26 00:25:49;;;;;;;;;9.00;7.50;;;;;20.97;67.34;100846.06;4983541;28;46904;-77
2021/07/26 00:28:14;;;;;;;;;10.50;8.00;;;;;20.95;66.42;100845.34;4983187;28;45386;-82
2021/07/26 00:30:40;;;;;;;;;8.75;8.00;;;;;20.94;67.17;100847.16;4974468;28;45409;-83
2021/07/26 00:33:57;;;;;;;;;9.25;9.25;;;;;20.94;67.12;100843.66;4987220;28;45433;-91
2021/07/26 00:36:22;;;;;;;;;9.25;8.75;;;;;20.96;66.92;100844.41;4983360;28;45544;-76
2021/07/26 00:38:48;;;;;;;;;11.00;11.00;;;;;20.89;66.45;100844.00;4982815;28;45433;-75
2021/07/26 00:41:15;;;;;;;;;7.00;6.50;;;;;20.79;66.72;100839.34;4978183;28;45245;-73
2021/07/26 00:43:41;;;;;;;;;8.75;7.25;;;;;20.75;66.62;100845.03;4994412;28;45336;-74
2021/07/26 00:46:07;;;;;;;;;13.00;11.00;;;;;20.72;66.64;100845.28;4982883;28;46787;-72
2021/07/26 00:48:32;;;;;;;;;12.00;9.25;;;;;20.66;66.62;100839.44;4982825;28;45402;-74
2021/07/26 00:50:57;;;;;;;;;13.50;9.50;;;;;20.57;66.53;100832.09;4982916;28;45302;-74
2021/07/26 00:53:23;;;;;;;;;14.75;12.25;;;;;20.54;66.59;100835.00;4982912;28;45268;-73
2021/07/26 00:55:48;;;;;;;;;10.75;10.00;;;;;20.55;67.09;100834.03;4991593;28;45443;-73
2021/07/26 00:58:14;;;;;;;;;13.75;12.00;;;;;20.55;66.58;100836.69;4964693;28;47265;-78
2021/07/26 01:00:39;;;;;;;;;12.25;9.00;;;;;20.54;66.75;100835.88;4989596;28;45459;-77
2021/07/26 01:03:05;;;;;;;;;15.25;14.50;;;;;20.59;66.93;100835.50;4982624;28;45460;-78
2021/07/26 01:05:30;;;;;;;;;11.50;11.00;;;;;20.57;66.44;100835.63;4982809;28;45235;-76
2021/07/26 01:07:56;;;;;;;;;12.00;11.50;;;;;20.57;66.13;100842.75;4989521;28;46574;-76
2021/07/26 01:10:21;;;;;;;;;14.75;12.50;;;;;20.52;66.48;100839.59;4982579;28;45385;-74
2021/07/26 01:12:47;;;;;;;;;15.50;10.00;;;;;20.50;66.45;100842.38;4982384;28;45276;-77
2021/07/26 01:15:13;;;;;;;;;11.50;11.50;;;;;20.55;66.80;100845.56;4987885;28;45609;-81
2021/07/26 01:18:17;;;;;;;;;15.75;13.25;;;;;20.62;66.41;100845.13;4989520;28;46965;-78
2021/07/26 01:20:43;;;;;;;;;15.50;15.25;;;;;20.58;66.06;100842.66;4983353;28;45252;-78
2021/07/26 01:23:08;;;;;;;;;12.00;11.00;;;;;20.56;66.02;100841.06;4982533;28;45276;-85
2021/07/26 01:25:37;;;;;;;;;11.75;11.50;;;;;20.59;66.04;100848.88;4982297;28;45225;-86
2021/07/26 01:28:03;;;;;;;;;13.00;11.25;;;;;20.61;66.28;100852.28;4980905;28;46937;-82
2021/07/26 01:30:31;;;;;;;;;17.00;14.25;;;;;20.63;65.41;100850.34;4992969;28;45600;-83
2021/07/26 01:32:56;;;;;;;;;14.75;13.00;;;;;20.61;64.81;100854.09;4982243;28;45166;-87
2021/07/26 01:35:22;;;;;;;;;16.50;14.50;;;;;20.54;65.50;100851.03;4982608;28;45259;-87
2021/07/26 01:37:47;;;;;;;;;11.75;11.75;;;;;20.53;65.96;100858.16;4964578;28;47012;-87
2021/07/26 01:40:13;;;;;;;;;11.75;11.50;;;;;20.55;66.08;100852.72;4964517;28;45264;-87
2021/07/26 01:42:43;;;;;;;;;11.75;10.75;;;;;20.61;65.35;100849.59;4982077;28;45505;-90
2021/07/26 01:45:10;;;;;;;;;10.50;8.75;;;;;20.65;65.06;100848.41;4984320;28;45363;-86
2021/07/26 01:47:46;;;;;;;;;8.50;8.25;;;;;20.69;65.15;100854.38;4981763;28;46627;-89
2021/07/26 01:50:14;;;;;;;;;8.50;8.00;;;;;20.65;65.12;100855.53;4964337;28;45240;-89
2021/07/26 01:52:40;;;;;;;;;14.25;13.75;;;;;20.57;65.77;100851.63;4982203;28;45467;-90
2021/07/26 01:55:06;;;;;;;;;12.25;10.00;;;;;20.61;65.58;100851.41;4982244;28;45399;-89
2021/07/26 01:57:32;;;;;;;;;9.50;8.75;;;;;20.63;65.24;100860.16;4983223;28;47283;-90
2021/07/26 01:59:57;;;;;;;;;9.00;8.25;;;;;20.60;64.29;100861.22;4970548;28;45412;-90
2021/07/26 02:02:23;;;;;;;;;10.50;10.25;;;;;20.53;64.81;100865.31;4991393;28;45264;-89
2021/07/26 02:04:50;;;;;;;;;10.00;10.00;;;;;20.53;64.33;100866.19;4996203;28;45531;-88
2021/07/26 02:07:16;;;;;;;;;8.00;8.00;;;;;20.50;65.29;100860.19;4973963;28;47108;-89
2021/07/26 02:09:42;;;;;;;;;7.50;7.50;;;;;20.50;64.63;100866.41;4976386;28;46027;-88
2021/07/26 02:12:07;;;;;;;;;8.25;7.50;;;;;20.51;64.60;100873.47;4981924;28;45385;-89
2021/07/26 02:14:33;;;;;;;;;9.25;6.75;;;;;20.45;64.23;100882.75;4981076;28;45485;-84
2021/07/26 02:16:58;;;;;;;;;9.50;7.00;;;;;20.44;64.37;100886.41;4981682;28;45451;-77
2021/07/26 02:19:23;;;;;;;;;11.25;8.75;;;;;20.39;64.26;100879.69;4981496;28;45204;-85
2021/07/26 02:21:51;;;;;;;;;10.75;10.00;;;;;20.44;65.26;100893.56;4996420;28;45154;-86
2021/07/26 02:24:16;;;;;;;;;9.25;8.00;;;;;20.51;65.01;100891.28;4976821;28;45999;-87
2021/07/26 02:26:42;;;;;;;;;8.50;7.75;;;;;20.59;64.95;100899.59;5000908;28;45525;-87
2021/07/26 02:29:07;;;;;;;;;7.00;6.50;;;;;20.68;64.91;100896.25;4970539;28;45415;-87
2021/07/26 02:31:32;;;;;;;;;8.50;8.50;;;;;20.71;64.47;100899.66;4978555;28;45378;-88
2021/07/26 02:33:58;;;;;;;;;9.00;7.00;;;;;20.71;64.61;100900.50;4982222;28;45500;-91
2021/07/26 02:36:23;;;;;;;;;8.00;8.00;;;;;20.68;63.92;100898.91;4975726;28;47001;-91
2021/07/26 02:38:49;;;;;;;;;7.75;7.75;;;;;20.66;64.11;100897.31;4982285;28;45472;-91
2021/07/26 02:41:15;;;;;;;;;8.25;6.75;;;;;20.52;64.28;100901.84;4976253;28;45456;-90
2021/07/26 02:43:41;;;;;;;;;11.75;8.25;;;;;20.46;64.72;100903.16;4981213;28;45227;-91
2021/07/26 02:46:08;;;;;;;;;8.75;8.25;;;;;20.40;64.36;100898.25;4975748;28;47150;-90
2021/07/26 02:48:34;;;;;;;;;11.00;10.00;;;;;20.32;64.88;100903.31;4982493;28;45263;-91
2021/07/26 02:51:00;;;;;;;;;9.25;8.50;;;;;20.27;64.93;100903.66;4983138;28;45242;-84
2021/07/26 02:53:25;;;;;;;;;8.50;7.75;;;;;20.18;64.70;100899.81;5000582;28;45576;-84
2021/07/26 02:55:51;;;;;;;;;11.50;8.75;;;;;20.10;65.58;100902.97;4981946;28;45578;-83
2021/07/26 02:58:16;;;;;;;;;8.25;8.00;;;;;20.04;65.84;100900.78;4980809;28;45336;-83
2021/07/26 03:00:45;;;;;;;;;12.50;10.25;;;;;20.03;65.63;100901.72;4989856;28;45396;-83
2021/07/26 03:03:10;;;;;;;;;13.50;11.25;;;;;19.99;65.82;100900.25;4999506;28;45455;-83
2021/07/26 03:05:35;;;;;;;;;13.75;11.25;;;;;19.95;65.60;100906.75;5000398;28;45325;-83
2021/07/26 03:08:01;;;;;;;;;10.00;10.00;;;;;19.92;66.32;100907.81;4999938;28;45270;-83
2021/07/26 03:10:26;;;;;;;;;10.75;10.75;;;;;19.85;65.97;100899.38;4963273;28;45304;-83
2021/07/26 03:12:51;;;;;;;;;11.50;10.50;;;;;19.78;66.64;100888.31;5000353;28;45372;-84
2021/07/26 03:15:18;;;;;;;;;11.75;11.75;;;;;19.78;66.90;100909.63;4998573;28;45365;-83
2021/07/26 03:17:45;;;;;;;;;14.25;9.75;;;;;19.75;66.55;100904.53;4987724;28;45417;-84
2021/07/26 03:20:11;;;;;;;;;12.25;10.00;;;;;19.73;66.54;100906.44;4980844;28;45496;-84
2021/07/26 03:22:58;;;;;;;;;11.75;10.50;;;;;19.73;66.66;100909.09;4993594;28;45266;-84
2021/07/26 03:25:25;;;;;;;;;13.75;12.50;;;;;19.73;66.93;100906.44;4989529;28;45294;-86
2021/07/26 03:27:51;;;;;;;;;14.00;12.50;;;;;19.71;66.38;100913.69;4980514;28;45549;-87
2021/07/26 03:30:19;;;;;;;;;13.25;11.75;;;;;19.65;66.90;100912.31;4980695;28;45476;-87
2021/07/26 03:32:44;;;;;;;;;11.50;11.50;;;;;19.55;67.30;100914.78;4962737;28;46230;-88
2021/07/26 03:35:11;;;;;;;;;11.75;11.75;;;;;19.47;67.26;100911.75;4962730;28;47012;-89
2021/07/26 03:37:37;;;;;;;;;14.00;12.25;;;;;19.42;67.79;100919.22;4980504;28;46287;-89
2021/07/26 03:40:04;;;;;;;;;13.25;11.50;;;;;19.36;67.94;100914.31;4983582;28;45478;-78
2021/07/26 03:42:29;;;;;;;;;15.25;13.00;;;;;19.29;67.78;100908.53;4980094;28;45476;-87
2021/07/26 03:44:56;;;;;;;;;11.25;11.25;;;;;19.34;68.58;100919.72;4963846;28;47005;-85
2021/07/26 03:47:22;;;;;;;;;11.25;11.25;;;;;19.42;68.17;100919.22;4989283;28;45613;-87
2021/07/26 03:49:48;;;;;;;;;15.25;13.00;;;;;19.38;67.93;100907.94;4980415;28;45309;-87
2021/07/26 03:52:13;;;;;;;;;15.75;12.50;;;;;19.39;68.29;100919.41;4961626;28;46342;-84
2021/07/26 03:54:38;;;;;;;;;15.50;11.50;;;;;19.38;68.37;100918.59;4987368;28;46272;-85
2021/07/26 03:57:04;;;;;;;;;14.75;11.25;;;;;19.32;68.55;100924.31;4994674;28;45221;-85
2021/07/26 03:59:29;;;;;;;;;12.75;12.00;;;;;19.29;68.36;100922.72;4980073;28;45353;-89
2021/07/26 04:01:55;;;;;;;;;14.25;13.75;;;;;19.27;68.52;100926.44;4979990;28;45334;-79
2021/07/26 04:04:22;;;;;;;;;13.25;12.75;;;;;19.22;68.39;100926.75;4975231;28;48160;-81
2021/07/26 04:06:51;;;;;;;;;11.75;9.75;;;;;19.21;68.66;100922.38;4980681;28;45318;-82
2021/07/26 04:09:17;;;;;;;;;14.50;12.75;;;;;19.24;68.73;100924.81;4962618;28;45267;-82
2021/07/26 04:11:44;;;;;;;;;13.75;12.50;;;;;19.22;68.84;100921.41;4962139;28;46750;-80
2021/07/26 04:14:11;;;;;;;;;16.00;12.50;;;;;19.24;68.53;100932.81;4995463;28;45265;-89
2021/07/26 04:16:36;;;;;;;;;13.00;10.25;;;;;19.28;68.68;100934.34;4995271;28;45337;-91
2021/07/26 04:19:03;;;;;;;;;17.00;13.50;;;;;19.30;69.22;100929.75;4973183;28;45535;-90
2021/07/26 04:21:29;;;;;;;;;17.00;13.25;;;;;19.32;69.29;100930.50;4979611;28;45334;-90
2021/07/26 04:23:55;;;;;;;;;16.50;13.75;;;;;19.36;69.04;100931.13;4979897;28;45366;-89
2021/07/26 04:26:20;;;;;;;;;12.75;12.75;;;;;19.41;69.00;100933.53;4979921;28;45372;-90
2021/07/26 04:28:45;;;;;;;;;15.00;13.75;;;;;19.41;68.60;100934.34;4962121;28;45482;-88
2021/07/26 04:31:11;;;;;;;;;11.75;11.25;;;;;19.44;68.69;100934.16;4979710;28;45266;-90
2021/07/26 04:33:36;;;;;;;;;14.50;14.50;;;;;19.48;68.48;100929.47;4966706;28;47410;-90
2021/07/26 04:36:01;;;;;;;;;17.25;12.75;;;;;19.54;68.72;100937.03;4962450;28;45291;-89
2021/07/26 04:38:27;;;;;;;;;16.00;12.25;;;;;19.59;68.77;100935.84;4997966;28;45236;-91
2021/07/26 04:40:52;;;;;;;;;15.75;13.75;;;;;19.64;68.37;100933.72;4981499;28;45372;-84
2021/07/26 04:43:18;;;;;;;;;9.00;9.00;;;;;19.68;68.50;100930.75;4998981;28;45315;-86
2021/07/26 04:45:43;;;;;;;;;13.75;12.50;;;;;19.76;68.68;100943.56;4998216;28;45198;-87
2021/07/26 04:48:09;;;;;;;;;10.00;10.00;;;;;19.79;68.43;100939.81;4983044;28;45289;-87
2021/07/26 04:50:34;;;;;;;;;10.75;10.75;;;;;19.86;67.97;100943.78;4979487;28;45195;-86
2021/07/26 04:52:59;;;;;;;;;8.75;8.25;;;;;19.95;67.97;100934.25;4982109;28;45368;-88
2021/07/26 04:55:25;;;;;;;;;16.50;15.00;;;;;20.08;67.16;100936.94;4986463;28;46916;-91
2021/07/26 04:57:52;;;;;;;;;12.75;10.50;;;;;20.18;67.39;100945.16;4971767;28;45895;-84
2021/07/26 05:00:17;;;;;;;;;10.50;10.50;;;;;20.21;67.65;100931.63;4978597;28;45425;-88
2021/07/26 05:02:43;;;;;;;;;10.50;9.25;;;;;20.27;67.15;100950.81;4981188;28;46565;-82
2021/07/26 05:05:08;;;;;;;;;12.25;10.50;;;;;20.30;67.03;100940.75;4981039;28;45394;-86
2021/07/26 05:07:34;;;;;;;;;10.75;10.75;;;;;20.39;66.99;100949.94;4964475;28;45307;-86
2021/07/26 05:09:59;;;;;;;;;10.25;9.50;;;;;20.48;66.73;100945.75;4981803;28;45401;-86
2021/07/26 05:12:24;;;;;;;;;13.50;12.50;;;;;20.56;66.11;100948.72;4981337;28;45362;-86
2021/07/26 05:14:52;;;;;;;;;10.00;9.00;;;;;20.61;66.23;100953.72;4981850;28;45461;-89
2021/07/26 05:17:23;;;;;;;;;8.50;8.50;;;;;20.68;66.13;100952.31;4980367;28;45408;-85
2021/07/26 05:19:49;;;;;;;;;8.00;8.00;;;;;20.74;66.00;100953.66;4977202;28;46089;-84
2021/07/26 05:22:14;;;;;;;;;12.00;9.50;;;;;20.77;65.47;100955.25;4970345;28;48207;-82
2021/07/26 05:24:39;;;;;;;;;13.00;10.50;;;;;20.87;65.85;100964.31;4983399;28;45464;-83
2021/07/26 05:27:07;;;;;;;;;11.25;10.50;;;;;20.86;65.47;100967.09;4964041;28;45456;-82
2021/07/26 05:29:33;;;;;;;;;9.75;8.75;;;;;20.88;65.77;100962.50;4981560;28;45583;-83
2021/07/26 05:31:59;;;;;;;;;9.75;9.50;;;;;20.92;65.32;100967.50;4984761;28;45251;-86
2021/07/26 05:34:24;;;;;;;;;8.00;8.00;;;;;20.90;65.43;100958.75;4988029;28;45521;-88
2021/07/26 05:36:50;;;;;;;;;11.00;10.00;;;;;20.83;65.59;100961.97;4970612;28;45385;-87
2021/07/26 05:39:16;;;;;;;;;9.00;7.75;;;;;20.75;65.39;100959.88;4989434;28;45437;-87
2021/07/26 05:41:42;;;;;;;;;8.50;8.50;;;;;20.76;65.67;100966.94;4984975;28;45499;-85
2021/07/26 05:44:08;;;;;;;;;9.50;8.00;;;;;20.77;65.80;100960.59;4987755;28;45405;-78
2021/07/26 05:46:33;;;;;;;;;7.50;6.25;;;;;20.79;65.30;100967.53;4983994;28;45744;-78
2021/07/26 05:48:58;;;;;;;;;10.50;8.75;;;;;20.84;65.36;100958.34;4982769;28;45329;-78
2021/07/26 05:51:24;;;;;;;;;7.50;7.25;;;;;20.90;65.40;100974.78;4991612;28;46281;-78
2021/07/26 05:53:49;;;;;;;;;10.50;8.25;;;;;20.92;65.48;100966.63;4991817;28;45867;-77
2021/07/26 05:56:14;;;;;;;;;8.25;7.75;;;;;20.97;65.28;100966.28;4964926;28;45303;-77
2021/07/26 05:58:46;;;;;;;;;7.25;7.25;;;;;21.02;65.37;100969.50;4982876;28;46943;-77
2021/07/26 06:03:47;;;;;;;;;8.75;6.50;;;;;21.11;65.00;100954.63;4986247;28;45495;-77
2021/07/26 06:06:13;;;;;;;;;6.00;5.25;;;;;21.15;65.19;100958.78;4984321;28;45318;-77
2021/07/26 06:08:38;;;;;;;;;8.25;6.75;;;;;21.13;65.08;100958.91;4983352;28;47466;-77
2021/07/26 06:11:04;;;;;;;;;9.00;6.75;;;;;21.17;64.86;100964.00;4993004;28;45425;-77
2021/07/26 06:13:30;;;;;;;;;7.50;6.00;;;;;21.19;64.97;100970.06;4983212;28;45304;-77
2021/07/26 06:15:56;;;;;;;;;6.75;4.50;;;;;21.18;65.00;100965.72;4970917;28;45359;-76
2021/07/26 06:18:22;;;;;;;;;6.00;6.00;;;;;21.19;64.94;100967.41;4980710;28;45686;-76
2021/07/26 06:20:47;;;;;;;;;8.00;6.00;;;;;21.17;64.71;100966.66;4985851;28;46649;-76
2021/07/26 06:23:12;;;;;;;;;5.75;5.75;;;;;21.18;64.87;100966.56;4987198;28;45247;-76
2021/07/26 06:25:38;;;;;;;;;6.25;6.25;;;;;21.12;64.64;100969.69;4984117;28;45666;-77
2021/07/26 06:28:03;;;;;;;;;9.50;7.75;;;;;21.07;65.26;100979.84;4981037;28;45519;-76
2021/07/26 06:30:30;;;;;;;;;8.00;6.50;;;;;21.00;65.39;100971.41;4994762;28;47551;-76
2021/07/26 06:32:56;;;;;;;;;7.00;7.00;;;;;21.02;64.85;100977.53;4990778;28;45190;-76
2021/07/26 06:35:22;;;;;;;;;6.50;5.75;;;;;21.08;64.75;100984.25;4981527;28;45274;-76
2021/07/26 06:37:47;;;;;;;;;6.00;5.75;;;;;21.17;64.39;100974.69;4981208;28;45313;-77
2021/07/26 06:40:14;;;;;;;;;6.75;6.75;;;;;21.23;64.66;100979.59;4972131;28;46069;-77
2021/07/26 06:42:40;;;;;;;;;6.75;6.00;;;;;21.25;64.88;100980.31;4987484;28;45306;-77
2021/07/26 06:45:09;;;;;;;;;5.75;5.75;;;;;21.28;64.71;100980.09;4981529;28;45325;-77
2021/07/26 06:47:38;;;;;;;;;8.00;6.00;;;;;21.32;64.77;100981.56;4980768;28;45428;-77
2021/07/26 06:50:04;;;;;;;;;7.00;7.00;;;;;21.35;64.82;100981.34;4985547;28;45747;-77
2021/07/26 06:52:30;;;;;;;;;12.25;9.00;;;;;21.40;64.32;100985.47;4971823;28;45645;-77
2021/07/26 06:54:55;;;;;;;;;7.00;7.00;;;;;21.42;64.52;100978.19;4989111;28;45452;-77
2021/07/26 06:57:21;;;;;;;;;9.75;8.00;;;;;21.47;64.80;100981.38;4980824;28;45384;-74
2021/07/26 06:59:46;;;;;;;;;8.75;7.50;;;;;21.50;64.50;100985.63;4986925;28;45355;-74
2021/07/26 07:02:12;;;;;;;;;12.50;9.25;;;;;21.54;64.82;100987.94;4990399;28;45898;-74
2021/07/26 07:04:38;;;;;;;;;11.50;10.00;;;;;21.59;64.20;100983.09;4981049;28;45219;-74
2021/07/26 07:07:05;;;;;;;;;8.00;6.00;;;;;21.66;64.32;100979.94;4980984;28;45461;-74
2021/07/26 07:09:31;;;;;;;;;6.50;6.50;;;;;21.71;63.61;100980.44;4968722;28;47572;-74
2021/07/26 07:11:56;;;;;;;;;10.50;9.50;;;;;21.76;63.84;100988.97;4984048;28;45346;-74
2021/07/26 07:14:22;;;;;;;;;7.50;6.25;;;;;21.79;63.95;100986.06;4989096;28;45485;-74
2021/07/26 07:16:47;;;;;;;;;9.25;8.00;;;;;21.83;64.27;100993.88;4995375;28;45495;-74
2021/07/26 07:19:12;;;;;;;;;12.50;10.25;;;;;21.85;63.60;100999.94;4993212;28;45314;-74
2021/07/26 07:21:39;;;;;;;;;8.50;7.50;;;;;21.84;63.65;101000.91;5000298;28;45317;-74
2021/07/26 07:24:04;;;;;;;;;14.25;10.25;;;;;21.84;63.29;100998.22;4963673;28;45426;-74
2021/07/26 07:26:31;;;;;;;;;15.50;11.25;;;;;21.81;63.53;101002.84;4978797;28;46930;-74
2021/07/26 07:28:57;;;;;;;;;10.25;8.50;;;;;21.67;63.16;101003.06;4997357;28;45681;-74
2021/07/26 07:31:23;;;;;;;;;11.00;6.00;;;;;21.54;63.93;101006.66;4981474;28;45472;-74
2021/07/26 07:33:52;;;;;;;;;11.75;10.00;;;;;21.42;64.14;101003.09;4996319;28;45407;-74
2021/07/26 07:36:19;;;;;;;;;14.00;9.50;;;;;21.41;64.55;101011.25;4983589;28;45319;-74
2021/07/26 07:38:44;;;;;;;;;11.25;11.25;;;;;21.35;64.75;101016.09;4962826;28;47572;-74
2021/07/26 07:41:09;;;;;;;;;10.50;9.50;;;;;21.32;64.56;101020.81;4980400;28;45234;-73
2021/07/26 07:43:35;;;;;;;;;12.00;12.00;;;;;21.32;64.82;101019.00;4993539;28;45428;-73
2021/07/26 07:46:00;;;;;;;;;9.75;8.75;;;;;21.29;64.56;101026.38;4999672;28;45372;-73
2021/07/26 07:48:27;;;;;;;;;12.50;9.00;;;;;21.27;64.87;101021.16;4994170;28;46105;-73
2021/07/26 07:50:54;;;;;;;;;10.25;9.75;;;;;21.30;65.68;101022.75;4980198;28;45429;-73
2021/07/26 07:53:20;;;;;;;;;8.00;7.75;;;;;21.30;64.36;101015.56;4980290;28;45231;-73
2021/07/26 07:55:45;;;;;;;;;10.25;9.25;;;;;21.34;65.13;101025.06;4996693;28;45789;-73
2021/07/26 07:58:11;;;;;;;;;11.75;9.75;;;;;21.37;64.58;101018.63;4996169;28;45599;-73
2021/07/26 08:00:37;;;;;;;;;11.75;10.50;;;;;21.39;64.43;101019.38;4999401;28;45317;-73
2021/07/26 08:03:03;;;;;;;;;10.50;10.50;;;;;21.39;64.90;101022.03;4997890;28;45506;-73
2021/07/26 08:05:29;;;;;;;;;14.00;12.00;;;;;21.43;65.07;101020.00;4980924;28;45499;-74
2021/07/26 08:07:54;;;;;;;;;10.25;8.00;;;;;21.46;64.83;101019.75;4979954;28;45561;-73
2021/07/26 08:10:20;;;;;;;;;13.50;12.00;;;;;21.54;65.02;101024.53;4977013;28;45684;-73
2021/07/26 08:12:46;;;;;;;;;14.25;13.75;;;;;21.55;64.75;101016.41;4977904;28;45331;-73
2021/07/26 08:15:12;;;;;;;;;15.00;10.00;;;;;21.55;64.99;101015.56;4975735;28;46552;-73
2021/07/26 08:17:44;;;;;;;;;12.25;9.50;;;;;21.65;64.20;101031.75;4976243;28;45543;-73
2021/07/26 08:20:12;;;;;;;;;11.25;8.25;;;;;21.72;64.47;101030.31;4983462;28;45687;-73
2021/07/26 08:22:37;;;;;;;;;9.75;9.75;;;;;21.77;63.80;101030.81;4997791;28;45455;-73
2021/07/26 08:25:04;;;;;;;;;14.75;13.25;;;;;21.86;64.62;101039.09;4992618;28;45414;-73
2021/07/26 08:27:30;;;;;;;;;14.00;13.00;;;;;21.88;63.49;101032.69;4978107;28;47115;-73
2021/07/26 08:29:55;;;;;;;;;11.25;9.75;;;;;21.96;64.20;101032.09;4986214;28;45485;-73
2021/07/26 08:32:21;;;;;;;;;12.50;11.25;;;;;21.99;64.42;101039.91;4991255;28;45460;-73
2021/07/26 08:34:46;;;;;;;;;14.75;14.25;;;;;22.00;64.17;101041.59;4978323;28;45403;-73
2021/07/26 08:37:12;;;;;;;;;15.00;13.00;;;;;22.02;63.69;101038.81;4960238;28;48107;-73
2021/07/26 08:39:38;;;;;;;;;12.50;10.25;;;;;22.03;63.84;101036.00;4997786;28;45526;-73
2021/07/26 08:42:03;;;;;;;;;11.00;11.00;;;;;22.09;64.39;101036.50;4992739;28;45306;-73
2021/07/26 08:44:29;;;;;;;;;16.00;11.00;;;;;22.16;63.41;101040.41;4999729;28;45418;-73
2021/07/26 08:46:58;;;;;;;;;10.75;9.75;;;;;22.21;63.73;101040.91;4991368;28;45944;-73
2021/07/26 08:49:27;;;;;;;;;11.25;11.25;;;;;22.25;62.46;101045.03;4984700;28;45214;-73
2021/07/26 08:51:55;;;;;;;;;7.50;7.50;;;;;22.29;62.56;101044.78;4981477;28;45547;-73
2021/07/26 08:54:21;;;;;;;;;11.00;10.00;;;;;22.31;62.95;101045.53;4984927;28;45757;-73
2021/07/26 08:56:49;;;;;;;;;11.25;10.25;;;;;22.36;63.31;101046.00;4975902;28;45464;-73
2021/07/26 08:59:14;;;;;;;;;11.25;11.00;;;;;22.37;61.97;101048.56;4980850;28;45489;-73
2021/07/26 09:01:43;;;;;;;;;13.25;8.25;;;;;22.39;61.89;101044.91;4990319;28;45340;-73
2021/07/26 09:04:08;;;;;;;;;11.00;9.00;;;;;22.30;61.63;101050.00;4985084;28;45356;-73
2021/07/26 09:06:34;;;;;;;;;9.75;9.75;;;;;22.25;62.46;101055.75;4981377;28;45377;-73
2021/07/26 09:08:59;;;;;;;;;11.75;9.25;;;;;22.26;62.14;101051.25;4983697;28;45648;-73
2021/07/26 09:11:25;;;;;;;;;12.00;10.25;;;;;22.29;62.88;101055.50;5000999;28;45342;-73
2021/07/26 09:13:50;;;;;;;;;15.00;10.75;;;;;22.32;62.48;101053.41;5000330;28;45425;-73
2021/07/26 09:16:25;;;;;;;;;0.00;0.00;;;;;22.35;61.92;101060.38;4997622;28;45452;-73
2021/07/26 09:19:01;;;;;;;;;9.25;7.50;;;;;22.35;62.35;101065.72;4982685;28;45390;-73
2021/07/26 09:21:52;;;;;;;;;10.75;9.50;;;;;22.35;62.21;101057.69;4983776;28;45602;-74
2021/07/26 09:24:27;;;;;;;;;10.25;8.75;;;;;22.34;62.65;101053.31;4990143;28;45551;-73
2021/07/26 09:26:56;;;;;;;;;8.25;7.25;;;;;22.32;62.30;101048.06;4981038;28;46660;-73
2021/07/26 09:29:30;;;;;;;;;9.75;9.25;;;;;22.32;62.11;101045.38;4979351;28;45351;-73
2021/07/26 09:32:05;;;;;;;;;10.50;9.25;;;;;22.31;62.24;101046.38;4981483;28;45385;-73
2021/07/26 09:34:35;;;;;;;;;9.25;9.25;;;;;22.35;63.55;101055.00;4992481;28;45512;-73
2021/07/26 09:37:01;;;;;;;;;10.00;8.75;;;;;22.36;61.96;101057.59;4980350;28;45428;-73
2021/07/26 09:39:28;;;;;;;;;9.00;8.75;;;;;22.36;63.08;101054.03;4981101;28;45927;-74
2021/07/26 09:41:55;;;;;;;;;9.25;8.75;;;;;22.37;63.97;101058.44;4983392;28;45530;-74
2021/07/26 09:44:25;;;;;;;;;11.75;11.00;;;;;22.31;63.71;101067.81;4980938;28;45377;-74
2021/07/26 09:46:51;;;;;;;;;12.50;10.25;;;;;22.26;63.98;101064.63;4987509;28;45511;-74
2021/07/26 09:49:18;;;;;;;;;14.50;12.25;;;;;22.21;64.19;101070.34;4985543;28;45345;-74
2021/07/26 09:52:08;;;;;;;;;12.25;12.00;;;;;22.11;64.47;101067.53;4971141;28;45397;-74
2021/07/26 09:54:41;;;;;;;;;9.00;6.50;;;;;22.06;64.58;101066.16;4987165;28;45253;-73
2021/07/26 09:57:23;;;;;;;;;14.75;14.50;;;;;22.07;65.05;101073.25;4984450;28;45509;-74
2021/07/26 09:59:49;;;;;;;;;14.75;12.50;;;;;22.02;65.88;101065.56;4985329;28;45659;-73
2021/07/26 10:02:16;;;;;;;;;13.25;11.50;;;;;22.01;66.01;101064.72;4988788;28;45393;-74
2021/07/26 10:04:43;;;;;;;;;13.50;11.25;;;;;22.02;64.90;101058.41;4979830;28;45474;-74
2021/07/26 10:07:12;;;;;;;;;13.75;13.50;;;;;22.09;66.04;101065.94;4975650;28;46354;-74
2021/07/26 10:09:40;;;;;;;;;19.00;16.25;;;;;22.11;66.40;101059.50;4994164;28;45357;-74
2021/07/26 10:12:07;;;;;;;;;23.25;20.75;;;;;22.15;67.35;101065.44;4977869;28;45525;-74
2021/07/26 10:14:33;;;;;;;;;12.00;11.25;;;;;22.16;65.73;101072.53;4980499;28;45350;-74
2021/07/26 10:17:00;;;;;;;;;16.50;14.75;;;;;22.18;65.91;101064.34;4980847;28;46716;-74
2021/07/26 10:19:26;;;;;;;;;16.25;14.75;;;;;22.22;66.32;101061.34;4979954;28;45404;-74
2021/07/26 10:21:55;;;;;;;;;18.50;17.50;;;;;22.24;66.66;101061.22;4980828;28;45549;-74
2021/07/26 10:24:22;;;;;;;;;16.50;16.50;;;;;22.24;67.00;101062.06;4981018;28;45329;-74
2021/07/26 10:26:48;;;;;;;;;16.75;14.25;;;;;22.21;66.91;101065.00;4972819;28;47689;-74
2021/07/26 10:29:13;;;;;;;;;19.25;13.50;;;;;22.20;66.50;101073.97;4963062;28;45453;-74
2021/07/26 10:31:39;;;;;;;;;17.00;14.75;;;;;22.23;65.84;101070.22;4997112;28;45661;-74
2021/07/26 10:34:09;;;;;;;;;17.25;13.25;;;;;22.25;65.74;101073.63;4999291;28;45431;-74
2021/07/26 10:36:40;;;;;;;;;18.50;15.75;;;;;22.25;66.68;101076.28;4984078;28;45512;-74
2021/07/26 10:39:07;;;;;;;;;18.50;16.75;;;;;22.25;66.13;101073.63;4980442;28;45709;-74
2021/07/26 10:41:45;;;;;;;;;16.75;16.25;;;;;22.29;67.29;101071.56;4962903;28;45421;-75
2021/07/26 10:44:32;;;;;;;;;22.25;16.00;;;;;22.32;66.03;101066.81;4974054;28;47166;-74
2021/07/26 10:47:05;;;;;;;;;20.25;15.50;;;;;22.38;66.13;101065.47;4988397;28;45665;-74
2021/07/26 10:49:43;;;;;;;;;18.50;16.75;;;;;22.46;66.98;101075.59;4977828;28;45750;-75
2021/07/26 10:52:29;;;;;;;;;14.25;13.25;;;;;22.46;66.30;101076.47;4980335;28;45535;-74
2021/07/26 10:54:57;;;;;;;;;18.50;16.75;;;;;22.47;65.95;101077.31;4970967;28;45298;-74
2021/07/26 10:57:41;;;;;;;;;13.00;13.00;;;;;22.42;65.68;101071.47;4979471;28;46062;-74
2021/07/26 11:00:09;;;;;;;;;16.50;15.50;;;;;22.40;65.19;101079.59;4971995;28;45458;-74
2021/07/26 11:02:36;;;;;;;;;14.75;12.50;;;;;22.37;65.35;101083.38;4995286;28;45486;-73
2021/07/26 11:05:23;;;;;;;;;16.75;14.50;;;;;22.35;65.72;101079.09;4989249;28;45542;-74
2021/07/26 11:08:09;;;;;;;;;12.50;12.50;;;;;22.30;65.66;101068.75;4989179;28;46666;-74
2021/07/26 11:10:48;;;;;;;;;15.00;13.75;;;;;22.25;66.16;101074.47;4989219;28;45510;-74
2021/07/26 11:13:15;;;;;;;;;16.25;15.25;;;;;22.21;66.92;101067.66;5000224;28;45328;-74
2021/07/26 11:15:44;;;;;;;;;13.75;12.00;;;;;22.14;65.61;101055.72;4986014;28;45540;-74
2021/07/26 11:18:19;;;;;;;;;12.25;10.75;;;;;22.19;66.16;101064.25;4962765;28;46092;-74